LAKE NATOMA (NIMBUS DAM) (NAT)

Elevation: 132' · AMERICAN R basin · Operator: US Bureau of Reclamation

Provisional data, subject to change.
Query executed Saturday at 1:17:25   clock

Select a sensor type for a plot of data.
Note: Reservoir Flows are daily averages.

Earlier

Date RES ELE    STORAGE    RES CHG    OUTFLOW    INFLOW    SPILL    DIS PWR   
 FEET   AF   AF   CFS   CFS   CFS   CFS  
03/27/2015 122.18 7422 249 630 757 172 365
03/28/2015 123.33 7946 524 598 863 0 505
03/29/2015 123.05 7815 -131 871 806 0 778
03/30/2015 123.45 8003 188 642 738 0 549
03/31/2015 123.71 8125 122 621 684 0 524
04/01/2015 123.51 8031 -94 630 584 0 526
04/02/2015 123.27 7918 -113 629 573 0 525
04/03/2015 123.17 7871 -47 631 608 0 527
04/04/2015 123.04 7810 -61 631 601 0 527
04/05/2015 123.03 7805 -5 621 619 0 528
04/06/2015 122.46 7548 -257 602 473 0 528
04/07/2015 122.04 7359 -189 599 505 0 525
04/08/2015 121.68 7207 -152 603 527 0 525
04/09/2015 122.32 7485 278 614 756 0 514
04/10/2015 121.82 7265 -220 622 513 0 513
04/11/2015 121.96 7324 59 631 663 0 517
04/12/2015 122.51 7571 -- 618 745 0 517
04/13/2015 122.69 7652 81 588 631 0 520
04/14/2015 122.49 7562 -90 589 547 0 524
04/15/2015 121.74 7232 -330 600 437 0 515
04/16/2015 122.19 7427 195 617 717 0 519
04/17/2015 121.98 7333 -94 621 576 0 521
04/18/2015 122.33 7490 157 618 699 0 518
04/19/2015 122.28 7467 -23 628 618 0 527
04/20/2015 122.65 7634 167 637 723 0 528
04/21/2015 122.73 7670 36 632 652 0 517
04/22/2015 122.88 7737 67 642 678 2 525
04/23/2015 123.17 7871 134 639 709 0 526
04/24/2015 -- -- -- -- -- -- --
04/25/2015 -- -- -- -- -- -- --

Later | Latest

Warning! This data is preliminary and subject to revision.

Show NAT Map | Plot NAT Data | 1 Month NAT Data | Real-Time NAT Data | NAT Info